Time;durP1;ratioP1;P1;durP2;ratioP2;P2;SDS_P1;SDS_P2;PMS_P1;PMS_P2;Temp;Humidity;BMP_temperature;BMP_pressure;BME280_temperature;BME280_humidity;BME280_pressure;Samples;Min_cycle;Max_cycle;Signal;HPM_P1;HPM_P2
2021/11/19 00:04:32;;;;;;;9.50;6.40;;;;;;;6.74;73.67;99295.39;214738;1320;22633;-74
2021/11/19 00:09:36;;;;;;;9.80;5.50;;;;;;;6.70;73.68;99293.10;214893;1319;24198;-74
2021/11/19 00:14:38;;;;;;;10.80;5.80;;;;;;;6.66;73.88;99292.85;214562;1321;25261;-75
2021/11/19 00:19:43;;;;;;;9.40;6.50;;;;;;;6.63;74.09;99281.69;214834;1316;23821;-74
2021/11/19 00:24:46;;;;;;;8.60;5.60;;;;;;;6.59;74.22;99275.64;214862;1316;22508;-74
2021/11/19 00:29:48;;;;;;;9.10;5.60;;;;;;;6.57;74.23;99281.04;214746;1317;22659;-74
2021/11/19 00:34:53;;;;;;;8.50;5.30;;;;;;;6.56;74.37;99302.00;214783;1319;22572;-75
2021/11/19 00:39:59;;;;;;;8.20;6.30;;;;;;;6.53;74.31;99301.02;214950;1316;22991;-74
2021/11/19 00:45:01;;;;;;;9.80;6.10;;;;;;;6.50;74.52;99297.24;214991;1318;22643;-74
2021/11/19 00:50:09;;;;;;;8.70;5.40;;;;;;;6.46;75.03;99293.33;214913;1320;25261;-73
2021/11/19 00:55:11;;;;;;;9.50;5.60;;;;;;;6.44;74.78;99287.39;214870;1320;22577;-73
2021/11/19 01:00:24;;;;;;;8.60;5.50;;;;;;;6.43;75.08;99290.84;214575;1319;22803;-73
2021/11/19 01:05:26;;;;;;;10.00;5.50;;;;;;;6.40;75.40;99297.29;214906;1320;23911;-74
2021/11/19 01:10:31;;;;;;;7.70;5.70;;;;;;;6.37;75.43;99300.35;214975;1313;22625;-74
2021/11/19 01:15:44;;;;;;;8.70;5.30;;;;;;;6.34;75.41;99298.55;215188;1321;24375;-74
2021/11/19 01:20:49;;;;;;;8.70;5.30;;;;;;;6.30;75.79;99292.23;214824;1320;22708;-74
2021/11/19 01:26:02;;;;;;;7.30;5.60;;;;;;;6.26;75.92;99284.05;214914;1316;22620;-74
2021/11/19 01:31:33;;;;;;;8.60;4.80;;;;;;;6.23;76.10;99280.38;214927;1316;25424;-74
2021/11/19 01:36:43;;;;;;;8.30;5.70;;;;;;;6.18;76.72;99265.80;214910;1316;25397;-74
2021/11/19 01:42:11;;;;;;;9.50;6.60;;;;;;;6.13;77.02;99255.20;214984;1321;25220;-74
2021/11/19 01:47:13;;;;;;;10.40;5.90;;;;;;;6.07;77.22;99251.94;214872;1320;22636;-74
2021/11/19 01:52:23;;;;;;;10.00;5.90;;;;;;;6.04;77.57;99248.59;214930;1316;24436;-74
2021/11/19 01:57:37;;;;;;;9.80;6.90;;;;;;;6.03;77.90;99250.54;214925;1316;24221;-75
2021/11/19 02:03:00;;;;;;;9.40;6.60;;;;;;;6.04;77.69;99243.16;214707;1317;22886;-75
2021/11/19 02:08:16;;;;;;;10.00;6.60;;;;;;;6.03;77.98;99243.47;214931;1319;22710;-74
2021/11/19 02:13:44;;;;;;;9.80;6.30;;;;;;;6.02;78.01;99242.98;214763;1319;22801;-74
2021/11/19 02:18:49;;;;;;;13.90;6.80;;;;;;;6.00;78.60;99234.77;214859;1321;23415;-74
2021/11/19 02:24:11;;;;;;;10.30;6.30;;;;;;;5.97;78.36;99227.98;214878;1321;25409;-73
2021/11/19 02:29:15;;;;;;;11.40;7.40;;;;;;;5.95;78.39;99229.35;214697;1313;23865;-74
2021/11/19 02:34:18;;;;;;;10.80;6.60;;;;;;;5.93;78.78;99231.20;214826;1322;23677;-74
2021/11/19 02:39:39;;;;;;;11.30;7.40;;;;;;;5.90;79.23;99226.46;214649;1319;22595;-74
2021/11/19 02:44:41;;;;;;;10.60;7.10;;;;;;;5.83;79.93;99218.30;214866;1322;22573;-74
2021/11/19 02:49:46;;;;;;;13.10;7.20;;;;;;;5.76;80.78;99217.09;214759;1322;22676;-75
2021/11/19 02:54:49;;;;;;;11.70;8.20;;;;;;;5.69;81.32;99217.52;214847;1321;22618;-73
2021/11/19 02:59:54;;;;;;;11.80;7.10;;;;;;;5.64;81.49;99216.61;214593;1321;22500;-74
2021/11/19 03:05:02;;;;;;;12.10;7.90;;;;;;;5.59;82.27;99210.48;214574;1322;22980;-74
2021/11/19 03:10:11;;;;;;;12.40;7.50;;;;;;;5.52;82.34;99196.70;214632;1321;24490;-73
2021/11/19 03:15:24;;;;;;;13.30;7.90;;;;;;;5.45;83.78;99203.04;214705;1316;23406;-74
2021/11/19 03:20:27;;;;;;;13.40;8.40;;;;;;;5.37;85.33;99197.73;214997;1319;22524;-74
2021/11/19 03:25:44;;;;;;;12.20;7.80;;;;;;;5.27;86.22;99190.95;214589;1320;22631;-74
2021/11/19 03:31:00;;;;;;;13.40;8.10;;;;;;;5.22;86.29;99190.27;214421;1320;25353;-73
2021/11/19 03:36:05;;;;;;;12.80;8.30;;;;;;;5.20;85.82;99191.84;214695;1322;25246;-73
2021/11/19 03:41:10;;;;;;;13.40;8.20;;;;;;;5.20;86.51;99193.23;214879;1313;25355;-74
2021/11/19 03:46:20;;;;;;;12.20;8.00;;;;;;;5.20;85.96;99183.61;214659;1321;25309;-73
2021/11/19 03:51:44;;;;;;;12.80;8.60;;;;;;;5.17;87.12;99184.59;214592;1317;25408;-73
2021/11/19 03:56:54;;;;;;;14.10;8.70;;;;;;;5.17;86.63;99199.52;214681;1318;22685;-74
2021/11/19 04:02:09;;;;;;;12.40;7.40;;;;;;;5.20;86.82;99202.30;214612;1321;24232;-74
2021/11/19 04:07:15;;;;;;;13.60;8.80;;;;;;;5.17;88.18;99194.52;214570;1320;23874;-73
2021/11/19 04:12:29;;;;;;;12.30;8.20;;;;;;;5.11;89.09;99185.06;214757;1320;22589;-73
2021/11/19 04:17:31;;;;;;;13.90;8.80;;;;;;;5.06;89.62;99185.42;214875;1320;22542;-73
2021/11/19 04:22:35;;;;;;;12.50;7.60;;;;;;;5.05;89.74;99184.35;215021;1321;25219;-73
2021/11/19 04:27:39;;;;;;;12.00;8.60;;;;;;;5.05;89.51;99184.66;214931;1317;25284;-73
2021/11/19 04:33:08;;;;;;;15.20;8.60;;;;;;;5.08;89.01;99173.98;214572;1319;24333;-73
2021/11/19 04:38:10;;;;;;;12.80;8.70;;;;;;;5.09;89.18;99174.48;214716;1321;25402;-73
2021/11/19 04:43:12;;;;;;;14.40;9.60;;;;;;;5.10;89.76;99173.05;214764;1321;24247;-73
2021/11/19 04:48:16;;;;;;;17.00;10.00;;;;;;;5.10;89.90;99170.46;214726;1315;22713;-73
2021/11/19 04:53:32;;;;;;;13.90;9.10;;;;;;;5.09;90.30;99164.92;214583;1321;22516;-73
2021/11/19 04:58:44;;;;;;;16.70;11.00;;;;;;;5.08;91.23;99169.73;215135;1318;22689;-73
2021/11/19 05:03:47;;;;;;;17.00;11.30;;;;;;;5.08;90.98;99170.36;215122;1317;24218;-72
2021/11/19 05:08:50;;;;;;;20.70;13.00;;;;;;;5.08;91.24;99160.70;214664;1316;253726;-72
2021/11/19 05:13:55;;;;;;;18.80;12.60;;;;;;;5.09;91.76;99157.79;214959;1317;25427;-72
2021/11/19 05:19:05;;;;;;;17.20;11.40;;;;;;;5.08;91.30;99152.79;214782;1320;25915;-73
2021/11/19 05:24:09;;;;;;;17.20;10.70;;;;;;;5.09;92.56;99153.65;215027;1321;22620;-73
2021/11/19 05:29:14;;;;;;;16.70;10.30;;;;;;;5.10;92.64;99153.71;214955;1321;22644;-73
2021/11/19 05:34:31;;;;;;;16.20;10.20;;;;;;;5.14;92.12;99157.33;215088;1320;22639;-73
2021/11/19 05:39:38;;;;;;;15.50;10.00;;;;;;;5.16;91.87;99161.94;214911;1317;23726;-74
2021/11/19 05:44:42;;;;;;;14.00;8.70;;;;;;;5.19;92.05;99160.75;214980;1316;22623;-73
2021/11/19 05:50:06;;;;;;;14.20;9.20;;;;;;;5.22;92.20;99168.92;215062;1316;25120;-73
2021/11/19 05:55:11;;;;;;;12.00;8.10;;;;;;;5.26;92.51;99177.70;215144;1321;25425;-74
2021/11/19 06:00:25;;;;;;;12.20;8.50;;;;;;;5.28;92.08;99173.16;214621;1322;22509;-73
2021/11/19 06:05:32;;;;;;;12.70;8.30;;;;;;;5.31;92.30;99179.38;214752;1319;22686;-74
2021/11/19 06:11:00;;;;;;;11.10;7.60;;;;;;;5.38;91.96;99181.20;214949;1321;22627;-72
2021/11/19 06:16:07;;;;;;;9.20;7.00;;;;;;;5.38;92.57;99183.61;214925;1316;22865;-72
2021/11/19 06:21:17;;;;;;;12.70;8.70;;;;;;;5.40;92.91;99189.05;214921;1321;23110;-72
2021/11/19 06:26:22;;;;;;;10.50;7.90;;;;;;;5.41;92.48;99199.39;214726;1315;24340;-73
2021/11/19 06:31:24;;;;;;;11.50;8.00;;;;;;;5.44;92.61;99202.71;214748;1313;22750;-73
2021/11/19 06:36:27;;;;;;;9.40;7.20;;;;;;;5.46;92.45;99217.58;215322;1313;22716;-74
2021/11/19 06:41:30;;;;;;;11.10;7.50;;;;;;;5.52;91.99;99215.48;215577;1316;22608;-74
2021/11/19 06:46:45;;;;;;;11.50;7.50;;;;;;;5.57;91.98;99220.55;215738;1321;23989;-73
2021/11/19 06:51:50;;;;;;;11.10;7.80;;;;;;;5.61;92.19;99212.05;215787;1316;22613;-75
2021/11/19 06:57:10;;;;;;;8.90;7.10;;;;;;;5.67;92.43;99217.96;215442;1317;24321;-73
2021/11/19 07:02:15;;;;;;;8.60;6.40;;;;;;;5.71;92.51;99213.83;215962;1316;22572;-75
2021/11/19 07:07:19;;;;;;;8.20;6.40;;;;;;;5.76;92.68;99221.23;216207;1313;22645;-75
2021/11/19 07:12:27;;;;;;;7.80;5.90;;;;;;;5.82;92.58;99231.37;215829;1313;22791;-75
2021/11/19 07:17:37;;;;;;;8.60;6.20;;;;;;;5.90;92.87;99234.23;215620;1313;24237;-75
2021/11/19 07:22:50;;;;;;;8.30;5.90;;;;;;;5.94;92.69;99238.27;215291;1315;22738;-75
2021/11/19 07:27:56;;;;;;;7.60;5.80;;;;;;;5.97;93.05;99235.41;215766;1313;22763;-76
2021/11/19 07:33:15;;;;;;;9.80;6.20;;;;;;;6.01;92.95;99237.29;215653;1313;24275;-76
2021/11/19 07:38:35;;;;;;;7.80;5.90;;;;;;;6.03;93.87;99241.61;215473;1313;23865;-75
2021/11/19 07:43:59;;;;;;;8.30;5.80;;;;;;;6.05;94.48;99235.20;215677;1313;22685;-75
2021/11/19 07:49:37;;;;;;;8.10;5.50;;;;;;;6.07;93.88;99238.64;215559;1312;24474;-75
2021/11/19 07:54:44;;;;;;;9.50;6.10;;;;;;;6.11;94.31;99243.63;215736;1313;25461;-76
2021/11/19 07:59:46;;;;;;;8.50;6.00;;;;;;;6.18;94.05;99240.63;215815;1313;22771;-75
2021/11/19 08:04:49;;;;;;;8.30;5.70;;;;;;;6.19;93.70;99243.58;215609;1314;22582;-76
2021/11/19 08:10:03;;;;;;;9.30;6.00;;;;;;;6.21;94.81;99243.58;215913;1312;22608;-75
2021/11/19 08:15:19;;;;;;;6.60;5.20;;;;;;;6.21;95.43;99240.55;215588;1313;22737;-75
2021/11/19 08:20:38;;;;;;;7.80;5.70;;;;;;;6.26;94.91;99241.73;215567;1313;22625;-75
2021/11/19 08:25:44;;;;;;;7.70;5.60;;;;;;;6.29;94.98;99250.55;215590;1313;22524;-75
2021/11/19 08:31:08;;;;;;;8.50;5.80;;;;;;;6.31;94.89;99252.33;215964;1315;22598;-75
2021/11/19 08:36:12;;;;;;;8.40;5.80;;;;;;;6.32;94.98;99251.55;215774;1315;22579;-75
2021/11/19 08:41:22;;;;;;;7.80;5.50;;;;;;;6.34;94.95;99248.31;215725;1313;22731;-75
2021/11/19 08:46:57;;;;;;;9.00;5.80;;;;;;;6.39;94.74;99248.52;215501;1319;24223;-74
2021/11/19 08:52:21;;;;;;;7.90;5.40;;;;;;;6.45;94.95;99250.26;215658;1313;23800;-74
2021/11/19 08:57:25;;;;;;;8.40;5.00;;;;;;;6.50;94.73;99247.74;215760;1313;22600;-74
2021/11/19 09:02:28;;;;;;;9.30;6.50;;;;;;;6.58;94.36;99263.64;215346;1313;24119;-74
2021/11/19 09:07:37;;;;;;;7.30;4.90;;;;;;;6.66;94.40;99264.84;215592;1313;22516;-74
2021/11/19 09:12:40;;;;;;;7.70;5.00;;;;;;;6.71;94.53;99261.12;215542;1315;22712;-75
2021/11/19 09:17:52;;;;;;;8.70;5.40;;;;;;;6.78;93.98;99262.80;215270;1318;22614;-73
2021/11/19 09:23:06;;;;;;;7.50;5.40;;;;;;;6.88;93.98;99265.54;215336;1316;22991;-73
2021/11/19 09:28:09;;;;;;;7.00;5.20;;;;;;;6.94;93.60;99265.23;215335;1319;24019;-73
2021/11/19 09:33:18;;;;;;;6.80;5.30;;;;;;;6.99;93.67;99259.31;215491;1313;24359;-74
2021/11/19 09:38:23;;;;;;;6.30;4.90;;;;;;;7.04;93.39;99265.42;215818;1313;22653;-74
2021/11/19 09:43:44;;;;;;;5.90;4.90;;;;;;;7.05;93.11;99265.13;215605;1313;22617;-74
2021/11/19 09:49:03;;;;;;;;;;;;;;;7.05;93.08;99267.78;216064;1313;22720;-74
2021/11/19 09:54:39;;;;;;;6.70;5.50;;;;;;;7.10;93.14;99266.92;216020;1313;22650;-74
2021/11/19 09:59:49;;;;;;;6.50;4.90;;;;;;;7.20;92.84;99265.52;215568;1313;23016;-74
2021/11/19 10:05:12;;;;;;;10.20;7.30;;;;;;;7.26;93.10;99262.27;215879;1313;22612;-74
2021/11/19 10:10:51;;;;;;;5.60;4.50;;;;;;;7.26;92.49;99267.59;215604;1313;25921;-74
2021/11/19 10:16:02;;;;;;;6.80;5.40;;;;;;;7.27;92.55;99269.20;215735;1313;22776;-74
2021/11/19 10:21:13;;;;;;;8.10;6.20;;;;;;;7.28;92.75;99267.45;215451;1313;22506;-74
2021/11/19 10:26:36;;;;;;;7.90;6.10;;;;;;;7.27;92.43;99255.70;215644;1313;23698;-75
2021/11/19 10:31:38;;;;;;;9.30;6.50;;;;;;;7.31;92.63;99257.06;215598;1315;23897;-75
2021/11/19 10:37:16;;;;;;;9.80;6.80;;;;;;;7.36;92.72;99253.16;215559;1320;25217;-76
2021/11/19 10:42:35;;;;;;;9.90;6.90;;;;;;;7.43;92.48;99252.42;214983;1316;22511;-76
2021/11/19 10:48:13;;;;;;;10.60;7.40;;;;;;;7.48;92.60;99246.05;215585;1316;24240;-77
2021/11/19 10:53:18;;;;;;;9.60;6.90;;;;;;;7.55;92.39;99241.84;215667;1313;24292;-78
2021/11/19 10:58:28;;;;;;;9.40;6.80;;;;;;;7.61;91.97;99234.58;215581;1313;22782;-78
2021/11/19 11:04:00;;;;;;;9.60;6.20;;;;;;;7.72;92.11;99233.41;215591;1315;22717;-78
2021/11/19 11:09:29;;;;;;;9.40;6.50;;;;;;;7.84;92.00;99236.36;215629;1319;22663;-79
2021/11/19 11:14:33;;;;;;;8.90;6.30;;;;;;;7.89;91.46;99237.51;215637;1313;22571;-75
2021/11/19 11:19:53;;;;;;;8.20;6.00;;;;;;;7.89;91.39;99232.34;215577;1316;23191;-76
2021/11/19 11:25:21;;;;;;;8.70;6.60;;;;;;;7.95;91.25;99228.58;215492;1315;23009;-76
2021/11/19 11:30:45;;;;;;;11.70;7.80;;;;;;;7.98;91.24;99229.23;215295;1320;24992;-76
2021/11/19 11:35:55;;;;;;;10.20;7.10;;;;;;;8.02;91.22;99222.63;215243;1313;24361;-76
2021/11/19 11:41:21;;;;;;;9.40;7.60;;;;;;;8.03;90.92;99226.48;215214;1319;23036;-76
2021/11/19 11:46:35;;;;;;;9.80;7.40;;;;;;;8.09;91.13;99224.58;215507;1315;22535;-76
2021/11/19 11:52:32;;;;;;;10.80;7.30;;;;;;;8.17;91.00;99221.58;215326;1315;22625;-75
2021/11/19 11:57:49;;;;;;;8.60;6.80;;;;;;;8.24;90.87;99218.94;215502;1316;22535;-75
2021/11/19 12:03:28;;;;;;;9.10;6.50;;;;;;;8.29;90.83;99224.08;215580;1316;24240;-76
2021/11/19 12:08:43;;;;;;;10.20;7.70;;;;;;;8.38;90.75;99217.38;215230;1315;24061;-76
2021/11/19 12:14:00;;;;;;;10.50;7.50;;;;;;;8.45;90.64;99217.77;215140;1321;23489;-75
2021/11/19 12:19:12;;;;;;;10.50;7.60;;;;;;;8.53;90.76;99213.21;215379;1315;22650;-75
2021/11/19 12:24:34;;;;;;;11.40;8.00;;;;;;;8.60;90.51;99213.17;215593;1319;22651;-75
2021/11/19 12:29:41;;;;;;;11.30;7.50;;;;;;;8.60;90.26;99217.73;215121;1320;23770;-75
2021/11/19 12:34:57;;;;;;;9.40;6.40;;;;;;;8.58;90.16;99213.17;215523;1316;22899;-75
2021/11/19 12:39:59;;;;;;;7.40;5.70;;;;;;;8.60;90.32;99213.40;215620;1315;24142;-75
2021/11/19 12:45:09;;;;;;;6.20;4.60;;;;;;;8.70;90.64;99212.60;215473;1319;22618;-74
2021/11/19 12:50:45;;;;;;;5.80;4.70;;;;;;;8.83;90.50;99208.41;215573;1315;22586;-75
2021/11/19 12:56:18;;;;;;;7.80;5.20;;;;;;;8.91;90.18;99203.70;215617;1320;24228;-76
2021/11/19 13:01:34;;;;;;;6.40;4.70;;;;;;;9.00;90.26;99195.81;215592;1317;22621;-75
2021/11/19 13:06:44;;;;;;;5.90;4.40;;;;;;;9.07;89.79;99190.89;215248;1320;24435;-75
2021/11/19 13:11:51;;;;;;;5.90;4.50;;;;;;;9.07;89.43;99200.83;215424;1319;185089;-75
2021/11/19 13:17:06;;;;;;;7.20;5.00;;;;;;;9.07;89.51;99204.24;215527;1319;22615;-75
2021/11/19 13:22:20;;;;;;;6.10;4.90;;;;;;;9.07;89.37;99207.39;215383;1321;25352;-75
2021/11/19 13:27:40;;;;;;;5.50;4.70;;;;;;;9.06;89.33;99208.15;215553;1320;23874;-74
2021/11/19 13:32:44;;;;;;;5.00;4.10;;;;;;;9.07;89.34;99204.40;215247;1320;25931;-74
2021/11/19 13:38:03;;;;;;;6.30;4.70;;;;;;;9.12;89.41;99202.91;215364;1316;22696;-74
2021/11/19 13:43:04;;;;;;;7.90;5.20;;;;;;;9.13;88.96;99197.94;215149;1320;22784;-74
2021/11/19 13:48:44;;;;;;;5.70;4.60;;;;;;;9.12;88.77;99197.89;215487;1313;22635;-75
2021/11/19 13:54:10;;;;;;;5.60;4.70;;;;;;;9.09;88.78;99197.83;215099;1318;22586;-75
2021/11/19 13:59:27;;;;;;;4.80;4.20;;;;;;;9.08;88.83;99198.95;215378;1315;25441;-75
2021/11/19 14:04:48;;;;;;;5.00;4.40;;;;;;;9.13;88.84;99207.24;215153;1319;22753;-75
2021/11/19 14:10:04;;;;;;;5.50;4.50;;;;;;;9.16;88.74;99211.67;215443;1316;22583;-73
2021/11/19 14:15:35;;;;;;;4.70;4.10;;;;;;;9.25;88.65;99209.47;215216;1319;22723;-74
2021/11/19 14:26:22;;;;;;;5.10;4.60;;;;;;;9.34;88.48;99212.35;215145;1320;24120;-74
2021/11/19 14:31:31;;;;;;;4.80;4.20;;;;;;;9.34;87.81;99204.38;215294;1316;22815;-74
2021/11/19 14:36:49;;;;;;;5.40;4.30;;;;;;;9.29;87.57;99206.42;215290;1320;22621;-74
2021/11/19 14:41:54;;;;;;;5.00;3.90;;;;;;;9.29;87.66;99204.88;215299;1321;22508;-75
2021/11/19 14:47:33;;;;;;;4.90;4.40;;;;;;;9.26;87.42;99206.96;215180;1319;22753;-74
2021/11/19 14:52:54;;;;;;;5.30;4.40;;;;;;;9.24;87.36;99203.45;215390;1320;24235;-75
2021/11/19 14:58:03;;;;;;;7.80;5.70;;;;;;;9.22;87.29;99205.80;215599;1316;22814;-75
2021/11/19 15:03:12;;;;;;;4.00;3.50;;;;;;;9.22;87.32;99202.59;215453;1321;22522;-76
2021/11/19 15:08:35;;;;;;;5.50;4.70;;;;;;;9.22;87.13;99200.49;215259;1320;22542;-75
2021/11/19 15:13:55;;;;;;;6.10;4.80;;;;;;;9.19;87.15;99203.34;215231;1320;22638;-76
2021/11/19 15:18:57;;;;;;;4.50;4.10;;;;;;;9.19;87.14;99210.48;215361;1320;22535;-75
2021/11/19 15:24:12;;;;;;;5.50;4.40;;;;;;;9.17;87.08;99214.98;215288;1322;25367;-75
2021/11/19 15:29:20;;;;;;;5.80;4.20;;;;;;;9.17;87.12;99218.46;215416;1317;25245;-75
2021/11/19 15:34:53;;;;;;;5.80;4.70;;;;;;;9.19;87.10;99216.11;215177;1319;24230;-76
2021/11/19 15:40:12;;;;;;;5.10;4.30;;;;;;;9.18;87.08;99213.83;215476;1316;24190;-74
2021/11/19 15:45:17;;;;;;;;;;;;;;;9.18;87.10;99218.14;215305;1316;22556;-74
2021/11/19 15:50:22;;;;;;;7.50;5.50;;;;;;;9.20;87.17;99219.84;214590;1316;24240;-74
2021/11/19 15:55:39;;;;;;;8.10;6.30;;;;;;;9.19;87.17;99228.08;214674;1321;22917;-74
2021/11/19 16:00:43;;;;;;;9.10;5.30;;;;;;;9.21;87.15;99232.48;214644;1321;23134;-74
2021/11/19 16:06:05;;;;;;;8.00;4.90;;;;;;;9.22;87.17;99234.23;214772;1321;22609;-76
2021/11/19 16:11:15;;;;;;;6.30;5.00;;;;;;;9.27;87.13;99243.06;214905;1322;22670;-75
2021/11/19 16:16:21;;;;;;;5.90;5.00;;;;;;;9.28;87.19;99242.84;214896;1320;23384;-76
2021/11/19 16:21:29;;;;;;;8.00;6.30;;;;;;;9.27;87.34;99239.09;214787;1321;22604;-76
2021/11/19 16:26:37;;;;;;;6.50;5.80;;;;;;;9.24;87.44;99240.02;214920;1319;23909;-76
2021/11/19 16:31:40;;;;;;;9.00;6.70;;;;;;;9.15;87.48;99236.38;214693;1319;22681;-76
2021/11/19 16:36:43;;;;;;;7.50;5.80;;;;;;;9.10;87.71;99235.30;214690;1320;22623;-76
2021/11/19 16:41:46;;;;;;;7.30;5.30;;;;;;;9.09;87.95;99234.56;214767;1321;22544;-76
2021/11/19 16:46:50;;;;;;;8.50;5.80;;;;;;;9.08;88.01;99234.98;214665;1321;24222;-75
2021/11/19 16:51:58;;;;;;;7.40;6.60;;;;;;;9.05;88.23;99229.31;214554;1322;24429;-76
2021/11/19 16:57:07;;;;;;;8.00;6.50;;;;;;;8.96;88.43;99233.38;214643;1316;25371;-76
2021/11/19 17:02:10;;;;;;;7.90;6.20;;;;;;;8.90;88.85;99238.60;214749;1321;23044;-75
2021/11/19 17:07:14;;;;;;;7.80;6.40;;;;;;;8.86;89.10;99248.00;214849;1320;22532;-76
2021/11/19 17:12:16;;;;;;;9.20;7.40;;;;;;;8.86;89.17;99245.71;214535;1319;22653;-76
2021/11/19 17:17:19;;;;;;;9.50;8.00;;;;;;;8.85;89.38;99237.69;214569;1318;22602;-76
2021/11/19 17:22:21;;;;;;;8.70;6.90;;;;;;;8.85;89.70;99230.21;214656;1320;23698;-77
2021/11/19 17:27:23;;;;;;;9.20;7.30;;;;;;;8.86;89.60;99230.54;214648;1319;24230;-75
2021/11/19 17:32:27;;;;;;;14.30;11.40;;;;;;;8.90;89.63;99232.45;214875;1317;22787;-76
2021/11/19 17:37:32;;;;;;;14.70;10.50;;;;;;;8.88;89.64;99228.98;214677;1321;22982;-76
2021/11/19 17:42:38;;;;;;;12.70;9.60;;;;;;;8.87;89.80;99226.42;214765;1322;22536;-76
2021/11/19 17:47:41;;;;;;;16.10;11.40;;;;;;;8.81;89.94;99227.05;214681;1316;25286;-76
2021/11/19 17:52:49;;;;;;;14.20;10.40;;;;;;;8.79;90.17;99233.20;214562;1321;22643;-76
2021/11/19 17:57:51;;;;;;;13.80;10.10;;;;;;;8.81;90.24;99238.81;214488;1322;22538;-76
2021/11/19 18:02:57;;;;;;;12.20;9.20;;;;;;;8.83;90.33;99243.03;214502;1321;22629;-76
2021/11/19 18:08:00;;;;;;;10.60;9.00;;;;;;;8.84;90.23;99241.59;214692;1321;22617;-76
2021/11/19 18:13:02;;;;;;;13.10;9.20;;;;;;;8.89;90.17;99242.67;214573;1322;25979;-76
2021/11/19 18:18:04;;;;;;;11.00;8.10;;;;;;;8.90;90.18;99238.65;214655;1317;22544;-75
2021/11/19 18:23:07;;;;;;;9.40;8.40;;;;;;;8.93;89.98;99241.23;214519;1317;22719;-76
2021/11/19 18:28:10;;;;;;;8.80;7.60;;;;;;;8.93;89.86;99238.13;214660;1320;24327;-76
2021/11/19 18:33:13;;;;;;;9.70;8.10;;;;;;;8.88;89.97;99239.35;214720;1322;22500;-76
2021/11/19 18:38:19;;;;;;;10.50;7.80;;;;;;;8.85;90.04;99236.77;214997;1321;22659;-77
2021/11/19 18:43:24;;;;;;;8.40;7.50;;;;;;;8.86;90.13;99242.71;214635;1319;22503;-76
2021/11/19 18:48:29;;;;;;;8.10;6.60;;;;;;;8.93;90.32;99239.41;214854;1320;23734;-76
2021/11/19 18:53:32;;;;;;;8.40;6.80;;;;;;;8.97;90.16;99241.33;214719;1316;22627;-76
2021/11/19 18:58:37;;;;;;;7.00;6.20;;;;;;;9.00;90.23;99241.88;214686;1315;22516;-75
2021/11/19 19:03:40;;;;;;;9.30;7.00;;;;;;;9.01;90.15;99243.63;214697;1321;22715;-77
2021/11/19 19:08:42;;;;;;;8.70;7.50;;;;;;;9.03;90.28;99245.77;214801;1317;25277;-76
2021/11/19 19:13:46;;;;;;;6.40;5.80;;;;;;;9.05;90.24;99246.04;214738;1320;22512;-75
2021/11/19 19:18:52;;;;;;;9.10;7.10;;;;;;;9.08;90.26;99244.71;214960;1313;22653;-76
2021/11/19 19:23:54;;;;;;;6.90;6.20;;;;;;;9.07;90.32;99240.38;215050;1321;22624;-76
2021/11/19 19:28:59;;;;;;;8.40;7.40;;;;;;;9.07;90.07;99234.70;215081;1321;22627;-76
2021/11/19 19:34:02;;;;;;;8.40;7.00;;;;;;;9.08;90.10;99236.48;214760;1319;22665;-76
2021/11/19 19:39:10;;;;;;;8.20;7.40;;;;;;;9.12;90.20;99247.97;215030;1317;22964;-76
2021/11/19 19:44:14;;;;;;;9.50;7.60;;;;;;;9.15;90.12;99249.20;214981;1322;22662;-76
2021/11/19 19:49:19;;;;;;;9.90;7.80;;;;;;;9.19;90.07;99250.60;214597;1316;22633;-75
2021/11/19 19:54:31;;;;;;;8.10;6.90;;;;;;;9.21;89.84;99246.54;214924;1319;25050;-77
2021/11/19 19:59:33;;;;;;;11.70;7.30;;;;;;;9.20;89.86;99248.45;215000;1316;25379;-77
2021/11/19 20:04:42;;;;;;;10.00;8.00;;;;;;;9.17;89.81;99244.77;214762;1313;22569;-76
2021/11/19 20:09:44;;;;;;;8.80;7.20;;;;;;;9.14;89.90;99248.46;214829;1318;24285;-77
2021/11/19 20:14:49;;;;;;;10.10;7.50;;;;;;;9.11;89.82;99251.27;214496;1322;23825;-77
2021/11/19 20:20:10;;;;;;;8.50;7.20;;;;;;;9.11;89.80;99250.59;214730;1321;22573;-76
2021/11/19 20:25:17;;;;;;;9.50;6.90;;;;;;;9.14;89.66;99256.75;214467;1321;22654;-76
2021/11/19 20:30:31;;;;;;;8.20;6.80;;;;;;;9.16;89.62;99254.33;214786;1316;22624;-77
2021/11/19 20:35:36;;;;;;;6.70;5.90;;;;;;;9.16;89.39;99244.01;214563;1318;22575;-76
2021/11/19 20:40:39;;;;;;;7.60;5.80;;;;;;;9.18;89.36;99242.36;214719;1316;22755;-76
2021/11/19 20:45:49;;;;;;;7.50;6.70;;;;;;;9.19;89.13;99244.55;214626;1322;22528;-76
2021/11/19 20:50:54;;;;;;;8.00;6.60;;;;;;;9.22;89.01;99241.89;214701;1320;22544;-76
2021/11/19 20:56:00;;;;;;;7.30;5.90;;;;;;;9.22;88.91;99239.27;214694;1313;24311;-76
2021/11/19 21:01:13;;;;;;;7.00;5.60;;;;;;;9.23;88.79;99239.00;214651;1321;25345;-77
2021/11/19 21:06:18;;;;;;;6.50;5.10;;;;;;;9.24;88.41;99238.77;214760;1321;22896;-76
2021/11/19 21:11:21;;;;;;;7.60;5.30;;;;;;;9.24;88.25;99236.11;214348;1321;179600;-76
2021/11/19 21:16:24;;;;;;;5.50;5.00;;;;;;;9.25;88.18;99237.49;214940;1313;22712;-76
2021/11/19 21:21:30;;;;;;;6.00;5.10;;;;;;;9.28;88.08;99234.98;214804;1316;25660;-76
2021/11/19 21:26:36;;;;;;;6.40;5.20;;;;;;;9.31;87.98;99230.45;214836;1316;22594;-76
2021/11/19 21:31:43;;;;;;;5.80;5.20;;;;;;;9.31;87.69;99236.58;214822;1321;22746;-76
2021/11/19 21:36:51;;;;;;;5.50;5.00;;;;;;;9.35;87.60;99239.52;214842;1320;22824;-76
2021/11/19 21:41:57;;;;;;;5.40;4.80;;;;;;;9.36;87.37;99241.17;214998;1316;23100;-76
2021/11/19 21:47:01;;;;;;;6.60;5.90;;;;;;;9.39;87.21;99239.52;214678;1320;25399;-76
2021/11/19 21:52:09;;;;;;;6.60;5.50;;;;;;;9.39;87.05;99241.70;214849;1320;24338;-76
2021/11/19 21:57:17;;;;;;;5.90;5.00;;;;;;;9.39;86.80;99242.46;214568;1321;22506;-76
2021/11/19 22:02:25;;;;;;;8.30;7.20;;;;;;;9.40;86.64;99243.74;214897;1319;24195;-76
2021/11/19 22:07:41;;;;;;;6.00;5.40;;;;;;;9.41;86.28;99251.60;214776;1321;22777;-75
2021/11/19 22:13:03;;;;;;;6.90;4.80;;;;;;;9.41;86.21;99255.62;214569;1321;23020;-76
2021/11/19 22:18:11;;;;;;;6.50;5.10;;;;;;;9.43;85.91;99249.85;214988;1321;22730;-74
2021/11/19 22:23:14;;;;;;;6.60;4.90;;;;;;;9.47;85.82;99254.17;214721;1319;25358;-74
2021/11/19 22:28:24;;;;;;;6.90;5.50;;;;;;;9.46;85.67;99242.77;214992;1320;22618;-76
2021/11/19 22:33:28;;;;;;;6.30;5.20;;;;;;;9.46;85.41;99239.30;214857;1321;24490;-76
2021/11/19 22:38:47;;;;;;;6.40;5.40;;;;;;;9.47;85.06;99235.02;214863;1316;22579;-75
2021/11/19 22:43:56;;;;;;;8.30;5.50;;;;;;;9.49;84.97;99228.98;214649;1320;25603;-76
2021/11/19 22:48:58;;;;;;;6.30;5.70;;;;;;;9.51;84.62;99224.20;214840;1316;22641;-75
2021/11/19 22:54:03;;;;;;;7.00;5.20;;;;;;;9.55;84.23;99225.28;214892;1319;24349;-77
2021/11/19 22:59:12;;;;;;;7.40;5.40;;;;;;;9.57;83.98;99231.91;214807;1320;22596;-76
2021/11/19 23:04:18;;;;;;;5.30;4.70;;;;;;;9.58;83.73;99232.70;214421;1319;24164;-77
2021/11/19 23:09:32;;;;;;;7.50;5.80;;;;;;;9.62;83.46;99232.64;214464;1319;25392;-76
2021/11/19 23:14:42;;;;;;;7.80;5.50;;;;;;;9.65;83.10;99226.27;214597;1316;25427;-77
2021/11/19 23:19:47;;;;;;;7.00;5.10;;;;;;;9.64;82.92;99222.95;214890;1322;22773;-77
2021/11/19 23:24:55;;;;;;;6.40;5.30;;;;;;;9.66;82.98;99219.52;214577;1316;22624;-76
2021/11/19 23:29:58;;;;;;;7.00;5.50;;;;;;;9.68;82.63;99224.56;214989;1321;22582;-76
2021/11/19 23:35:21;;;;;;;8.10;5.10;;;;;;;9.71;82.36;99223.74;214722;1316;23849;-76
2021/11/19 23:40:41;;;;;;;6.20;5.50;;;;;;;9.73;81.91;99215.34;214540;1317;25429;-75
2021/11/19 23:46:01;;;;;;;9.40;5.20;;;;;;;9.71;81.61;99215.29;214547;1320;24183;-75
2021/11/19 23:51:22;;;;;;;;;;;;;;;9.73;81.43;99221.23;214319;1320;23127;-75
2021/11/19 23:56:26;;;;;;;8.80;5.50;;;;;;;9.72;81.47;99220.42;214817;1316;24308;-75
